sensor_id;sensor_type;location;lat;lon;timestamp;temperature;humidity
47765;DHT22;33529;49.242;8.670;2023-05-28T00:00:44;15.40;82.30
47765;DHT22;33529;49.242;8.670;2023-05-28T00:03:12;15.40;83.20
47765;DHT22;33529;49.242;8.670;2023-05-28T00:05:39;15.40;82.80
47765;DHT22;33529;49.242;8.670;2023-05-28T00:08:06;15.30;83.00
47765;DHT22;33529;49.242;8.670;2023-05-28T00:10:33;15.30;83.10
47765;DHT22;33529;49.242;8.670;2023-05-28T00:13:00;15.20;84.10
47765;DHT22;33529;49.242;8.670;2023-05-28T00:15:27;15.20;84.10
47765;DHT22;33529;49.242;8.670;2023-05-28T00:17:54;15.20;84.20
47765;DHT22;33529;49.242;8.670;2023-05-28T00:20:21;15.20;85.00
47765;DHT22;33529;49.242;8.670;2023-05-28T00:22:48;15.10;85.20
47765;DHT22;33529;49.242;8.670;2023-05-28T00:25:15;15.10;86.00
47765;DHT22;33529;49.242;8.670;2023-05-28T00:27:42;15.10;85.90
47765;DHT22;33529;49.242;8.670;2023-05-28T00:30:09;15.00;86.20
47765;DHT22;33529;49.242;8.670;2023-05-28T00:32:36;15.00;86.40
47765;DHT22;33529;49.242;8.670;2023-05-28T00:35:03;15.00;87.30
47765;DHT22;33529;49.242;8.670;2023-05-28T00:37:30;14.90;87.50
47765;DHT22;33529;49.242;8.670;2023-05-28T00:39:58;14.90;87.70
47765;DHT22;33529;49.242;8.670;2023-05-28T00:42:25;14.90;88.00
47765;DHT22;33529;49.242;8.670;2023-05-28T00:44:52;14.90;88.70
47765;DHT22;33529;49.242;8.670;2023-05-28T00:47:20;14.80;89.10
47765;DHT22;33529;49.242;8.670;2023-05-28T00:49:49;14.80;89.30
47765;DHT22;33529;49.242;8.670;2023-05-28T00:52:16;14.70;90.00
47765;DHT22;33529;49.242;8.670;2023-05-28T00:54:43;14.70;90.20
47765;DHT22;33529;49.242;8.670;2023-05-28T00:57:10;14.70;90.40
47765;DHT22;33529;49.242;8.670;2023-05-28T00:59:37;14.70;90.50
47765;DHT22;33529;49.242;8.670;2023-05-28T01:02:04;14.70;90.80
47765;DHT22;33529;49.242;8.670;2023-05-28T01:04:32;14.70;91.00
47765;DHT22;33529;49.242;8.670;2023-05-28T01:06:59;14.70;91.20
47765;DHT22;33529;49.242;8.670;2023-05-28T01:09:27;14.60;91.60
47765;DHT22;33529;49.242;8.670;2023-05-28T01:11:54;14.50;92.00
47765;DHT22;33529;49.242;8.670;2023-05-28T01:14:22;14.40;92.10
47765;DHT22;33529;49.242;8.670;2023-05-28T01:16:50;14.40;92.20
47765;DHT22;33529;49.242;8.670;2023-05-28T01:19:18;14.40;92.40
47765;DHT22;33529;49.242;8.670;2023-05-28T01:21:46;14.30;92.60
47765;DHT22;33529;49.242;8.670;2023-05-28T01:24:14;14.30;93.10
47765;DHT22;33529;49.242;8.670;2023-05-28T01:26:44;14.30;93.30
47765;DHT22;33529;49.242;8.670;2023-05-28T01:29:15;14.20;93.50
47765;DHT22;33529;49.242;8.670;2023-05-28T01:31:43;14.20;93.60
47765;DHT22;33529;49.242;8.670;2023-05-28T01:34:10;14.10;94.10
47765;DHT22;33529;49.242;8.670;2023-05-28T01:36:49;14.10;94.10
47765;DHT22;33529;49.242;8.670;2023-05-28T01:39:18;14.10;94.30
47765;DHT22;33529;49.242;8.670;2023-05-28T01:41:47;14.10;94.30
47765;DHT22;33529;49.242;8.670;2023-05-28T01:44:15;14.10;94.70
47765;DHT22;33529;49.242;8.670;2023-05-28T01:46:48;14.10;95.10
47765;DHT22;33529;49.242;8.670;2023-05-28T01:49:16;14.00;95.00
47765;DHT22;33529;49.242;8.670;2023-05-28T01:51:44;14.00;95.30
47765;DHT22;33529;49.242;8.670;2023-05-28T01:54:11;14.00;95.30
47765;DHT22;33529;49.242;8.670;2023-05-28T01:56:38;14.00;95.80
47765;DHT22;33529;49.242;8.670;2023-05-28T01:59:10;14.00;96.00
47765;DHT22;33529;49.242;8.670;2023-05-28T02:01:38;13.90;96.30
47765;DHT22;33529;49.242;8.670;2023-05-28T02:04:08;13.80;96.40
47765;DHT22;33529;49.242;8.670;2023-05-28T02:06:36;13.80;96.50
47765;DHT22;33529;49.242;8.670;2023-05-28T02:09:03;13.80;96.80
47765;DHT22;33529;49.242;8.670;2023-05-28T02:11:30;13.70;97.00
47765;DHT22;33529;49.242;8.670;2023-05-28T02:13:57;13.70;97.40
47765;DHT22;33529;49.242;8.670;2023-05-28T02:16:27;13.70;97.40
47765;DHT22;33529;49.242;8.670;2023-05-28T02:18:54;13.70;97.40
47765;DHT22;33529;49.242;8.670;2023-05-28T02:21:22;13.70;97.70
47765;DHT22;33529;49.242;8.670;2023-05-28T02:23:49;13.60;97.70
47765;DHT22;33529;49.242;8.670;2023-05-28T02:26:17;13.60;98.20
47765;DHT22;33529;49.242;8.670;2023-05-28T02:28:44;13.50;98.50
47765;DHT22;33529;49.242;8.670;2023-05-28T02:31:13;13.50;99.00
47765;DHT22;33529;49.242;8.670;2023-05-28T02:33:43;13.40;99.00
47765;DHT22;33529;49.242;8.670;2023-05-28T02:36:11;13.40;99.50
47765;DHT22;33529;49.242;8.670;2023-05-28T02:38:41;13.30;99.90
47765;DHT22;33529;49.242;8.670;2023-05-28T02:41:09;13.20;99.90
47765;DHT22;33529;49.242;8.670;2023-05-28T02:43:38;13.20;99.90
47765;DHT22;33529;49.242;8.670;2023-05-28T02:46:07;13.20;99.90
47765;DHT22;33529;49.242;8.670;2023-05-28T02:48:35;13.10;99.90
47765;DHT22;33529;49.242;8.670;2023-05-28T02:51:02;13.10;99.90
47765;DHT22;33529;49.242;8.670;2023-05-28T02:54:06;13.10;99.90
47765;DHT22;33529;49.242;8.670;2023-05-28T02:56:33;13.10;99.90
47765;DHT22;33529;49.242;8.670;2023-05-28T02:59:01;13.10;99.90
47765;DHT22;33529;49.242;8.670;2023-05-28T03:01:28;13.10;99.90
47765;DHT22;33529;49.242;8.670;2023-05-28T03:03:55;13.10;99.90
47765;DHT22;33529;49.242;8.670;2023-05-28T03:06:25;13.10;99.90
47765;DHT22;33529;49.242;8.670;2023-05-28T03:08:54;13.10;99.90
47765;DHT22;33529;49.242;8.670;2023-05-28T03:11:21;13.10;99.90
47765;DHT22;33529;49.242;8.670;2023-05-28T03:13:49;13.20;99.90
47765;DHT22;33529;49.242;8.670;2023-05-28T03:16:16;13.10;99.90
47765;DHT22;33529;49.242;8.670;2023-05-28T03:18:44;13.10;99.90
47765;DHT22;33529;49.242;8.670;2023-05-28T03:21:12;13.10;99.90
47765;DHT22;33529;49.242;8.670;2023-05-28T03:23:40;12.90;99.90
47765;DHT22;33529;49.242;8.670;2023-05-28T03:26:17;12.90;99.90
47765;DHT22;33529;49.242;8.670;2023-05-28T03:28:44;12.80;99.90
47765;DHT22;33529;49.242;8.670;2023-05-28T03:31:25;12.70;99.90
47765;DHT22;33529;49.242;8.670;2023-05-28T03:33:52;12.60;99.90
47765;DHT22;33529;49.242;8.670;2023-05-28T03:36:19;12.60;99.90
47765;DHT22;33529;49.242;8.670;2023-05-28T03:38:46;12.50;99.90
47765;DHT22;33529;49.242;8.670;2023-05-28T03:41:12;12.40;99.90
47765;DHT22;33529;49.242;8.670;2023-05-28T03:43:39;12.30;99.90
47765;DHT22;33529;49.242;8.670;2023-05-28T03:46:07;12.20;99.90
47765;DHT22;33529;49.242;8.670;2023-05-28T03:48:36;12.20;99.90
47765;DHT22;33529;49.242;8.670;2023-05-28T03:51:04;12.20;99.90
47765;DHT22;33529;49.242;8.670;2023-05-28T03:53:31;12.30;99.90
47765;DHT22;33529;49.242;8.670;2023-05-28T03:55:58;12.20;99.90
47765;DHT22;33529;49.242;8.670;2023-05-28T03:58:26;12.30;99.90
47765;DHT22;33529;49.242;8.670;2023-05-28T04:00:53;12.30;99.90
47765;DHT22;33529;49.242;8.670;2023-05-28T04:03:21;12.30;99.90
47765;DHT22;33529;49.242;8.670;2023-05-28T04:05:49;12.30;99.90
47765;DHT22;33529;49.242;8.670;2023-05-28T04:08:17;12.30;99.90
47765;DHT22;33529;49.242;8.670;2023-05-28T04:10:44;12.40;99.90
47765;DHT22;33529;49.242;8.670;2023-05-28T04:13:11;12.40;99.90
47765;DHT22;33529;49.242;8.670;2023-05-28T04:15:37;12.50;99.90
47765;DHT22;33529;49.242;8.670;2023-05-28T04:18:04;12.50;99.90
47765;DHT22;33529;49.242;8.670;2023-05-28T04:20:33;12.60;99.90
47765;DHT22;33529;49.242;8.670;2023-05-28T04:23:02;12.50;99.90
47765;DHT22;33529;49.242;8.670;2023-05-28T04:25:31;12.60;99.90
47765;DHT22;33529;49.242;8.670;2023-05-28T04:27:58;12.60;99.90
47765;DHT22;33529;49.242;8.670;2023-05-28T04:30:27;12.60;99.90
47765;DHT22;33529;49.242;8.670;2023-05-28T04:32:55;12.70;99.90
47765;DHT22;33529;49.242;8.670;2023-05-28T04:35:23;12.80;99.90
47765;DHT22;33529;49.242;8.670;2023-05-28T04:37:50;12.90;99.90
47765;DHT22;33529;49.242;8.670;2023-05-28T04:40:19;13.00;99.90
47765;DHT22;33529;49.242;8.670;2023-05-28T04:42:47;12.90;99.90
47765;DHT22;33529;49.242;8.670;2023-05-28T04:45:15;13.00;99.90
47765;DHT22;33529;49.242;8.670;2023-05-28T04:47:45;13.00;99.90
47765;DHT22;33529;49.242;8.670;2023-05-28T04:50:12;13.10;99.90
47765;DHT22;33529;49.242;8.670;2023-05-28T04:52:39;13.20;99.90
47765;DHT22;33529;49.242;8.670;2023-05-28T04:55:06;13.30;99.90
47765;DHT22;33529;49.242;8.670;2023-05-28T04:57:36;13.40;99.90
47765;DHT22;33529;49.242;8.670;2023-05-28T05:00:03;13.40;99.90
47765;DHT22;33529;49.242;8.670;2023-05-28T05:02:31;13.50;99.90
47765;DHT22;33529;49.242;8.670;2023-05-28T05:04:58;13.60;99.90
47765;DHT22;33529;49.242;8.670;2023-05-28T05:07:25;13.50;99.90
47765;DHT22;33529;49.242;8.670;2023-05-28T05:09:52;13.60;99.90
47765;DHT22;33529;49.242;8.670;2023-05-28T05:12:19;13.70;99.90
47765;DHT22;33529;49.242;8.670;2023-05-28T05:14:47;13.80;99.90
47765;DHT22;33529;49.242;8.670;2023-05-28T05:17:14;13.90;99.90
47765;DHT22;33529;49.242;8.670;2023-05-28T05:19:41;13.90;99.90
47765;DHT22;33529;49.242;8.670;2023-05-28T05:22:08;14.00;99.90
47765;DHT22;33529;49.242;8.670;2023-05-28T05:24:37;14.10;99.90
47765;DHT22;33529;49.242;8.670;2023-05-28T05:27:05;14.30;99.90
47765;DHT22;33529;49.242;8.670;2023-05-28T05:29:33;14.50;99.90
47765;DHT22;33529;49.242;8.670;2023-05-28T05:32:00;14.70;99.90
47765;DHT22;33529;49.242;8.670;2023-05-28T05:34:27;14.70;99.90
47765;DHT22;33529;49.242;8.670;2023-05-28T05:37:16;14.80;99.90
47765;DHT22;33529;49.242;8.670;2023-05-28T05:40:05;15.00;99.90
47765;DHT22;33529;49.242;8.670;2023-05-28T05:42:52;15.30;99.90
47765;DHT22;33529;49.242;8.670;2023-05-28T05:45:19;15.50;99.90
47765;DHT22;33529;49.242;8.670;2023-05-28T05:47:46;15.70;99.90
47765;DHT22;33529;49.242;8.670;2023-05-28T05:50:13;15.80;99.90
47765;DHT22;33529;49.242;8.670;2023-05-28T05:52:41;16.00;99.90
47765;DHT22;33529;49.242;8.670;2023-05-28T05:55:08;16.20;99.70
47765;DHT22;33529;49.242;8.670;2023-05-28T05:57:35;16.40;99.60
47765;DHT22;33529;49.242;8.670;2023-05-28T06:00:05;16.40;96.80
47765;DHT22;33529;49.242;8.670;2023-05-28T06:02:39;16.40;94.40
47765;DHT22;33529;49.242;8.670;2023-05-28T06:05:26;16.40;96.90
47765;DHT22;33529;49.242;8.670;2023-05-28T06:08:07;16.50;95.80
47765;DHT22;33529;49.242;8.670;2023-05-28T06:10:40;16.60;94.90
47765;DHT22;33529;49.242;8.670;2023-05-28T06:13:07;16.60;94.30
47765;DHT22;33529;49.242;8.670;2023-05-28T06:15:35;16.80;94.50
47765;DHT22;33529;49.242;8.670;2023-05-28T06:18:04;16.90;94.60
47765;DHT22;33529;49.242;8.670;2023-05-28T06:20:31;16.90;93.70
47765;DHT22;33529;49.242;8.670;2023-05-28T06:22:59;17.00;93.60
47765;DHT22;33529;49.242;8.670;2023-05-28T06:25:26;17.10;93.60
47765;DHT22;33529;49.242;8.670;2023-05-28T06:27:54;17.30;93.20
47765;DHT22;33529;49.242;8.670;2023-05-28T06:30:27;17.30;92.90
47765;DHT22;33529;49.242;8.670;2023-05-28T06:32:56;17.30;93.10
47765;DHT22;33529;49.242;8.670;2023-05-28T06:35:23;17.30;93.00
47765;DHT22;33529;49.242;8.670;2023-05-28T06:37:51;17.30;93.40
47765;DHT22;33529;49.242;8.670;2023-05-28T06:40:18;17.50;94.30
47765;DHT22;33529;49.242;8.670;2023-05-28T06:42:46;17.60;92.40
47765;DHT22;33529;49.242;8.670;2023-05-28T06:45:31;17.80;92.80
47765;DHT22;33529;49.242;8.670;2023-05-28T06:48:01;17.90;92.60
47765;DHT22;33529;49.242;8.670;2023-05-28T06:50:29;18.10;92.90
47765;DHT22;33529;49.242;8.670;2023-05-28T06:52:57;18.30;92.50
47765;DHT22;33529;49.242;8.670;2023-05-28T06:55:24;18.50;92.00
47765;DHT22;33529;49.242;8.670;2023-05-28T06:58:20;18.70;92.00
47765;DHT22;33529;49.242;8.670;2023-05-28T07:01:01;18.80;90.40
47765;DHT22;33529;49.242;8.670;2023-05-28T07:04:07;18.90;91.10
47765;DHT22;33529;49.242;8.670;2023-05-28T07:06:37;18.80;90.00
47765;DHT22;33529;49.242;8.670;2023-05-28T07:09:06;18.80;90.20
47765;DHT22;33529;49.242;8.670;2023-05-28T07:11:33;19.00;90.20
47765;DHT22;33529;49.242;8.670;2023-05-28T07:14:00;19.10;90.20
47765;DHT22;33529;49.242;8.670;2023-05-28T07:16:27;19.30;88.30
47765;DHT22;33529;49.242;8.670;2023-05-28T07:18:54;19.10;89.10
47765;DHT22;33529;49.242;8.670;2023-05-28T07:21:22;19.30;89.80
47765;DHT22;33529;49.242;8.670;2023-05-28T07:23:49;19.50;89.30
47765;DHT22;33529;49.242;8.670;2023-05-28T07:26:16;19.80;90.00
47765;DHT22;33529;49.242;8.670;2023-05-28T07:28:43;20.00;89.00
47765;DHT22;33529;49.242;8.670;2023-05-28T07:31:10;20.00;86.50
47765;DHT22;33529;49.242;8.670;2023-05-28T07:33:40;20.20;87.70
47765;DHT22;33529;49.242;8.670;2023-05-28T07:36:07;20.20;87.20
47765;DHT22;33529;49.242;8.670;2023-05-28T07:38:36;20.40;87.30
47765;DHT22;33529;49.242;8.670;2023-05-28T07:41:03;20.50;85.60
47765;DHT22;33529;49.242;8.670;2023-05-28T07:43:40;20.40;84.10
47765;DHT22;33529;49.242;8.670;2023-05-28T07:46:15;20.50;85.70
47765;DHT22;33529;49.242;8.670;2023-05-28T07:48:48;20.70;86.30
47765;DHT22;33529;49.242;8.670;2023-05-28T07:51:19;20.80;84.50
47765;DHT22;33529;49.242;8.670;2023-05-28T07:53:58;21.00;84.90
47765;DHT22;33529;49.242;8.670;2023-05-28T07:56:25;21.10;83.00
47765;DHT22;33529;49.242;8.670;2023-05-28T07:58:53;21.00;84.60
47765;DHT22;33529;49.242;8.670;2023-05-28T08:01:20;21.20;85.10
47765;DHT22;33529;49.242;8.670;2023-05-28T08:03:47;21.40;81.40
47765;DHT22;33529;49.242;8.670;2023-05-28T08:06:24;21.40;83.40
47765;DHT22;33529;49.242;8.670;2023-05-28T08:08:53;21.30;84.40
47765;DHT22;33529;49.242;8.670;2023-05-28T08:11:20;21.60;80.60
47765;DHT22;33529;49.242;8.670;2023-05-28T08:13:47;21.70;82.30
47765;DHT22;33529;49.242;8.670;2023-05-28T08:16:14;21.90;83.20
47765;DHT22;33529;49.242;8.670;2023-05-28T08:19:01;22.00;82.20
47765;DHT22;33529;49.242;8.670;2023-05-28T08:21:28;22.10;82.70
47765;DHT22;33529;49.242;8.670;2023-05-28T08:23:58;22.20;80.00
47765;DHT22;33529;49.242;8.670;2023-05-28T08:26:24;22.40;81.60
47765;DHT22;33529;49.242;8.670;2023-05-28T08:28:52;22.30;79.80
47765;DHT22;33529;49.242;8.670;2023-05-28T08:31:19;22.20;80.20
47765;DHT22;33529;49.242;8.670;2023-05-28T08:34:09;22.30;82.00
47765;DHT22;33529;49.242;8.670;2023-05-28T08:36:36;22.40;80.80
47765;DHT22;33529;49.242;8.670;2023-05-28T08:39:07;22.30;78.70
47765;DHT22;33529;49.242;8.670;2023-05-28T08:41:37;22.50;81.00
47765;DHT22;33529;49.242;8.670;2023-05-28T08:44:04;22.70;80.20
47765;DHT22;33529;49.242;8.670;2023-05-28T08:46:31;22.90;80.30
47765;DHT22;33529;49.242;8.670;2023-05-28T08:49:48;23.00;80.80
47765;DHT22;33529;49.242;8.670;2023-05-28T08:52:19;23.00;79.10
47765;DHT22;33529;49.242;8.670;2023-05-28T08:54:47;23.10;79.40
47765;DHT22;33529;49.242;8.670;2023-05-28T08:57:15;22.80;78.20
47765;DHT22;33529;49.242;8.670;2023-05-28T08:59:53;22.70;77.40
47765;DHT22;33529;49.242;8.670;2023-05-28T09:02:24;22.90;78.40
47765;DHT22;33529;49.242;8.670;2023-05-28T09:04:52;23.10;79.20
47765;DHT22;33529;49.242;8.670;2023-05-28T09:07:20;23.30;77.40
47765;DHT22;33529;49.242;8.670;2023-05-28T09:09:54;23.20;76.40
47765;DHT22;33529;49.242;8.670;2023-05-28T09:12:25;23.50;77.20
47765;DHT22;33529;49.242;8.670;2023-05-28T09:14:59;23.50;75.30
47765;DHT22;33529;49.242;8.670;2023-05-28T09:17:37;23.20;74.40
47765;DHT22;33529;49.242;8.670;2023-05-28T09:20:11;23.40;76.90
47765;DHT22;33529;49.242;8.670;2023-05-28T09:22:41;23.50;77.80
47765;DHT22;33529;49.242;8.670;2023-05-28T09:25:22;23.60;74.50
47765;DHT22;33529;49.242;8.670;2023-05-28T09:28:04;23.40;76.90
47765;DHT22;33529;49.242;8.670;2023-05-28T09:30:35;23.60;76.80
47765;DHT22;33529;49.242;8.670;2023-05-28T09:33:03;23.70;78.30
47765;DHT22;33529;49.242;8.670;2023-05-28T09:35:31;23.80;76.50
47765;DHT22;33529;49.242;8.670;2023-05-28T09:38:11;23.70;75.90
47765;DHT22;33529;49.242;8.670;2023-05-28T09:40:41;23.70;73.60
47765;DHT22;33529;49.242;8.670;2023-05-28T09:43:10;23.50;73.40
47765;DHT22;33529;49.242;8.670;2023-05-28T09:45:37;23.60;74.40
47765;DHT22;33529;49.242;8.670;2023-05-28T09:48:04;23.70;73.90
47765;DHT22;33529;49.242;8.670;2023-05-28T09:50:31;23.80;73.80
47765;DHT22;33529;49.242;8.670;2023-05-28T09:52:59;23.80;74.30
47765;DHT22;33529;49.242;8.670;2023-05-28T09:55:27;23.80;75.00
47765;DHT22;33529;49.242;8.670;2023-05-28T09:58:02;23.90;75.40
47765;DHT22;33529;49.242;8.670;2023-05-28T10:03:22;24.30;72.00
47765;DHT22;33529;49.242;8.670;2023-05-28T10:05:52;24.00;71.00
47765;DHT22;33529;49.242;8.670;2023-05-28T10:08:21;23.70;72.10
47765;DHT22;33529;49.242;8.670;2023-05-28T10:10:52;23.50;73.50
47765;DHT22;33529;49.242;8.670;2023-05-28T10:13:20;23.70;72.70
47765;DHT22;33529;49.242;8.670;2023-05-28T10:15:48;23.80;71.10
47765;DHT22;33529;49.242;8.670;2023-05-28T10:18:15;23.70;71.70
47765;DHT22;33529;49.242;8.670;2023-05-28T10:20:43;23.80;70.90
47765;DHT22;33529;49.242;8.670;2023-05-28T10:23:11;23.80;72.40
47765;DHT22;33529;49.242;8.670;2023-05-28T10:25:39;23.80;71.90
47765;DHT22;33529;49.242;8.670;2023-05-28T10:28:06;24.00;72.30
47765;DHT22;33529;49.242;8.670;2023-05-28T10:30:37;24.20;69.70
47765;DHT22;33529;49.242;8.670;2023-05-28T10:33:05;24.30;70.70
47765;DHT22;33529;49.242;8.670;2023-05-28T10:35:33;24.50;71.00
47765;DHT22;33529;49.242;8.670;2023-05-28T10:38:06;24.60;70.10
47765;DHT22;33529;49.242;8.670;2023-05-28T10:40:39;24.40;69.70
47765;DHT22;33529;49.242;8.670;2023-05-28T10:46:09;24.60;71.20
47765;DHT22;33529;49.242;8.670;2023-05-28T10:48:40;24.70;70.20
47765;DHT22;33529;49.242;8.670;2023-05-28T10:51:08;24.40;69.40
47765;DHT22;33529;49.242;8.670;2023-05-28T10:53:35;24.20;68.40
47765;DHT22;33529;49.242;8.670;2023-05-28T10:56:02;24.00;69.10
47765;DHT22;33529;49.242;8.670;2023-05-28T10:58:36;23.90;68.70
47765;DHT22;33529;49.242;8.670;2023-05-28T11:03:44;24.40;71.20
47765;DHT22;33529;49.242;8.670;2023-05-28T11:06:12;24.60;68.10
47765;DHT22;33529;49.242;8.670;2023-05-28T11:08:44;24.70;72.10
47765;DHT22;33529;49.242;8.670;2023-05-28T11:11:12;24.90;70.20
47765;DHT22;33529;49.242;8.670;2023-05-28T11:13:46;25.00;70.50
47765;DHT22;33529;49.242;8.670;2023-05-28T11:16:16;25.00;69.90
47765;DHT22;33529;49.242;8.670;2023-05-28T11:19:05;25.00;69.90
47765;DHT22;33529;49.242;8.670;2023-05-28T11:21:32;25.20;70.90
47765;DHT22;33529;49.242;8.670;2023-05-28T11:24:01;25.30;69.30
47765;DHT22;33529;49.242;8.670;2023-05-28T11:26:28;25.40;68.40
47765;DHT22;33529;49.242;8.670;2023-05-28T11:28:55;25.40;68.20
47765;DHT22;33529;49.242;8.670;2023-05-28T11:31:24;25.30;67.40
47765;DHT22;33529;49.242;8.670;2023-05-28T11:33:51;25.40;69.40
47765;DHT22;33529;49.242;8.670;2023-05-28T11:36:18;25.20;67.60
47765;DHT22;33529;49.242;8.670;2023-05-28T11:38:47;25.10;67.20
47765;DHT22;33529;49.242;8.670;2023-05-28T11:41:13;25.20;66.60
47765;DHT22;33529;49.242;8.670;2023-05-28T11:43:40;25.10;64.90
47765;DHT22;33529;49.242;8.670;2023-05-28T11:46:07;25.00;64.30
47765;DHT22;33529;49.242;8.670;2023-05-28T11:48:37;25.00;65.70
47765;DHT22;33529;49.242;8.670;2023-05-28T11:51:05;24.80;64.90
47765;DHT22;33529;49.242;8.670;2023-05-28T11:53:42;24.90;65.40
47765;DHT22;33529;49.242;8.670;2023-05-28T11:56:10;25.00;66.00
47765;DHT22;33529;49.242;8.670;2023-05-28T11:58:38;25.10;66.90
47765;DHT22;33529;49.242;8.670;2023-05-28T12:01:16;25.20;66.50
47765;DHT22;33529;49.242;8.670;2023-05-28T12:03:43;25.10;61.70
47765;DHT22;33529;49.242;8.670;2023-05-28T12:06:12;24.90;60.90
47765;DHT22;33529;49.242;8.670;2023-05-28T12:08:51;25.00;65.20
47765;DHT22;33529;49.242;8.670;2023-05-28T12:11:25;25.10;64.90
47765;DHT22;33529;49.242;8.670;2023-05-28T12:13:52;25.30;66.00
47765;DHT22;33529;49.242;8.670;2023-05-28T12:16:19;25.50;67.90
47765;DHT22;33529;49.242;8.670;2023-05-28T12:18:46;25.70;68.00
47765;DHT22;33529;49.242;8.670;2023-05-28T12:21:14;25.60;66.80
47765;DHT22;33529;49.242;8.670;2023-05-28T12:23:46;25.70;64.60
47765;DHT22;33529;49.242;8.670;2023-05-28T12:26:14;25.60;61.50
47765;DHT22;33529;49.242;8.670;2023-05-28T12:28:41;25.50;61.10
47765;DHT22;33529;49.242;8.670;2023-05-28T12:31:08;25.40;61.10
47765;DHT22;33529;49.242;8.670;2023-05-28T12:33:35;25.40;61.90
47765;DHT22;33529;49.242;8.670;2023-05-28T12:36:03;25.50;62.70
47765;DHT22;33529;49.242;8.670;2023-05-28T12:38:30;25.50;64.80
47765;DHT22;33529;49.242;8.670;2023-05-28T12:40:57;25.50;61.20
47765;DHT22;33529;49.242;8.670;2023-05-28T12:43:26;25.60;62.40
47765;DHT22;33529;49.242;8.670;2023-05-28T12:45:53;25.80;64.50
47765;DHT22;33529;49.242;8.670;2023-05-28T12:48:20;25.80;63.70
47765;DHT22;33529;49.242;8.670;2023-05-28T12:50:47;25.90;65.30
47765;DHT22;33529;49.242;8.670;2023-05-28T12:53:14;26.10;64.00
47765;DHT22;33529;49.242;8.670;2023-05-28T12:55:41;26.10;64.80
47765;DHT22;33529;49.242;8.670;2023-05-28T12:58:08;26.00;64.50
47765;DHT22;33529;49.242;8.670;2023-05-28T13:00:35;26.20;65.30
47765;DHT22;33529;49.242;8.670;2023-05-28T13:03:02;26.10;62.40
47765;DHT22;33529;49.242;8.670;2023-05-28T13:05:32;26.00;61.50
47765;DHT22;33529;49.242;8.670;2023-05-28T13:08:01;25.80;62.40
47765;DHT22;33529;49.242;8.670;2023-05-28T13:10:28;25.90;63.40
47765;DHT22;33529;49.242;8.670;2023-05-28T13:12:56;26.10;61.80
47765;DHT22;33529;49.242;8.670;2023-05-28T13:15:25;26.10;60.50
47765;DHT22;33529;49.242;8.670;2023-05-28T13:17:53;26.10;63.30
47765;DHT22;33529;49.242;8.670;2023-05-28T13:20:20;26.10;62.40
47765;DHT22;33529;49.242;8.670;2023-05-28T13:22:47;26.10;62.40
47765;DHT22;33529;49.242;8.670;2023-05-28T13:25:14;26.30;63.10
47765;DHT22;33529;49.242;8.670;2023-05-28T13:27:40;26.30;64.20
47765;DHT22;33529;49.242;8.670;2023-05-28T13:30:08;26.30;62.60
47765;DHT22;33529;49.242;8.670;2023-05-28T13:32:35;26.30;63.80
47765;DHT22;33529;49.242;8.670;2023-05-28T13:35:02;26.40;63.00
47765;DHT22;33529;49.242;8.670;2023-05-28T13:37:29;26.50;63.20
47765;DHT22;33529;49.242;8.670;2023-05-28T13:39:59;26.60;61.60
47765;DHT22;33529;49.242;8.670;2023-05-28T13:42:27;26.50;64.70
47765;DHT22;33529;49.242;8.670;2023-05-28T13:44:54;26.70;63.00
47765;DHT22;33529;49.242;8.670;2023-05-28T13:47:21;26.60;61.00
47765;DHT22;33529;49.242;8.670;2023-05-28T13:49:48;26.70;63.50
47765;DHT22;33529;49.242;8.670;2023-05-28T13:52:15;26.80;62.40
47765;DHT22;33529;49.242;8.670;2023-05-28T13:54:42;26.90;63.80
47765;DHT22;33529;49.242;8.670;2023-05-28T13:57:10;26.80;62.50
47765;DHT22;33529;49.242;8.670;2023-05-28T13:59:36;26.90;63.10
47765;DHT22;33529;49.242;8.670;2023-05-28T14:02:03;26.90;60.60
47765;DHT22;33529;49.242;8.670;2023-05-28T14:04:30;26.80;62.90
47765;DHT22;33529;49.242;8.670;2023-05-28T14:06:57;26.80;60.60
47765;DHT22;33529;49.242;8.670;2023-05-28T14:09:26;26.70;61.20
47765;DHT22;33529;49.242;8.670;2023-05-28T14:11:53;27.50;60.90
47765;DHT22;33529;49.242;8.670;2023-05-28T14:14:40;28.50;60.00
47765;DHT22;33529;49.242;8.670;2023-05-28T14:17:07;29.80;60.80
47765;DHT22;33529;49.242;8.670;2023-05-28T14:19:36;30.70;59.40
47765;DHT22;33529;49.242;8.670;2023-05-28T14:22:03;31.60;58.70
47765;DHT22;33529;49.242;8.670;2023-05-28T14:24:33;32.20;57.10
47765;DHT22;33529;49.242;8.670;2023-05-28T14:27:00;32.10;56.40
47765;DHT22;33529;49.242;8.670;2023-05-28T14:29:28;32.70;55.00
47765;DHT22;33529;49.242;8.670;2023-05-28T14:32:02;32.90;55.20
47765;DHT22;33529;49.242;8.670;2023-05-28T14:34:32;32.80;54.50
47765;DHT22;33529;49.242;8.670;2023-05-28T14:36:59;33.30;55.00
47765;DHT22;33529;49.242;8.670;2023-05-28T14:39:27;34.20;54.50
47765;DHT22;33529;49.242;8.670;2023-05-28T14:41:54;34.40;53.10
47765;DHT22;33529;49.242;8.670;2023-05-28T14:44:21;34.80;52.90
47765;DHT22;33529;49.242;8.670;2023-05-28T14:46:49;35.50;52.40
47765;DHT22;33529;49.242;8.670;2023-05-28T14:49:16;36.10;52.10
47765;DHT22;33529;49.242;8.670;2023-05-28T14:51:44;35.90;51.30
47765;DHT22;33529;49.242;8.670;2023-05-28T14:54:12;36.30;51.10
47765;DHT22;33529;49.242;8.670;2023-05-28T14:56:39;36.30;51.50
47765;DHT22;33529;49.242;8.670;2023-05-28T14:59:06;36.70;48.90
47765;DHT22;33529;49.242;8.670;2023-05-28T15:01:33;36.90;48.40
47765;DHT22;33529;49.242;8.670;2023-05-28T15:04:05;36.70;49.30
47765;DHT22;33529;49.242;8.670;2023-05-28T15:06:32;36.50;49.70
47765;DHT22;33529;49.242;8.670;2023-05-28T15:08:59;36.80;49.90
47765;DHT22;33529;49.242;8.670;2023-05-28T15:11:26;37.10;49.30
47765;DHT22;33529;49.242;8.670;2023-05-28T15:13:53;36.90;49.70
47765;DHT22;33529;49.242;8.670;2023-05-28T15:16:25;37.50;49.10
47765;DHT22;33529;49.242;8.670;2023-05-28T15:18:51;37.70;49.20
47765;DHT22;33529;49.242;8.670;2023-05-28T15:21:18;37.90;47.50
47765;DHT22;33529;49.242;8.670;2023-05-28T15:23:45;37.30;47.70
47765;DHT22;33529;49.242;8.670;2023-05-28T15:26:12;37.80;47.40
47765;DHT22;33529;49.242;8.670;2023-05-28T15:28:39;38.10;47.40
47765;DHT22;33529;49.242;8.670;2023-05-28T15:31:06;39.20;47.40
47765;DHT22;33529;49.242;8.670;2023-05-28T15:33:33;38.30;45.90
47765;DHT22;33529;49.242;8.670;2023-05-28T15:36:01;37.70;45.90
47765;DHT22;33529;49.242;8.670;2023-05-28T15:38:29;38.10;45.90
47765;DHT22;33529;49.242;8.670;2023-05-28T15:40:57;38.60;47.30
47765;DHT22;33529;49.242;8.670;2023-05-28T15:43:24;38.70;45.30
47765;DHT22;33529;49.242;8.670;2023-05-28T15:45:52;38.70;46.00
47765;DHT22;33529;49.242;8.670;2023-05-28T15:48:20;39.00;46.80
47765;DHT22;33529;49.242;8.670;2023-05-28T15:50:48;39.70;46.10